createdAt,value
2019-02-10T00:00:43.973Z,38.23
2019-02-10T00:03:12.647Z,37.77
2019-02-10T00:05:41.351Z,37.87
2019-02-10T00:08:10.025Z,40.83
2019-02-10T00:10:38.699Z,37.23
2019-02-10T00:13:26.382Z,38.20
2019-02-10T00:15:55.652Z,39.20
2019-02-10T00:18:24.544Z,37.60
2019-02-10T00:20:53.220Z,39.67
2019-02-10T00:23:22.005Z,36.50
2019-02-10T00:25:50.721Z,38.17
2019-02-10T00:28:19.403Z,36.20
2019-02-10T00:30:48.079Z,37.73
2019-02-10T00:33:16.781Z,37.23
2019-02-10T00:35:45.456Z,42.33
2019-02-10T00:38:14.147Z,41.33
2019-02-10T00:40:42.921Z,43.63
2019-02-10T00:43:11.716Z,42.60
2019-02-10T00:45:40.715Z,42.60
2019-02-10T00:48:09.399Z,43.80
2019-02-10T00:50:38.075Z,43.77
2019-02-10T00:53:06.785Z,44.67
2019-02-10T00:55:35.425Z,38.77
2019-02-10T00:58:04.105Z,41.87
2019-02-10T01:00:32.789Z,45.03
2019-02-10T01:03:01.475Z,47.23
2019-02-10T01:05:30.132Z,45.20
2019-02-10T01:07:58.810Z,44.47
2019-02-10T01:10:27.488Z,38.47
2019-02-10T01:12:56.182Z,40.67
2019-02-10T01:15:24.862Z,41.33
2019-02-10T01:17:53.547Z,39.07
2019-02-10T01:20:22.217Z,38.17
2019-02-10T01:22:50.904Z,41.17
2019-02-10T01:25:19.750Z,39.73
2019-02-10T01:27:48.425Z,34.50
2019-02-10T01:30:17.088Z,38.73
2019-02-10T01:32:45.769Z,36.17
2019-02-10T01:35:15.416Z,36.20
2019-02-10T01:37:44.100Z,31.13
2019-02-10T01:40:12.886Z,39.40
2019-02-10T01:42:41.672Z,36.87
2019-02-10T01:45:12.750Z,35.43
2019-02-10T01:47:41.638Z,31.53
2019-02-10T01:50:11.778Z,31.27
2019-02-10T01:52:40.461Z,19.40
2019-02-10T01:55:13.974Z,20.30
2019-02-10T01:57:43.087Z,26.80
2019-02-10T02:00:14.691Z,24.47
2019-02-10T02:02:43.377Z,22.33
2019-02-10T02:05:12.242Z,23.93
2019-02-10T02:07:40.918Z,20.97
2019-02-10T02:10:13.735Z,20.20
2019-02-10T02:12:42.395Z,23.50
2019-02-10T02:15:15.780Z,18.33
2019-02-10T02:17:44.497Z,17.03
2019-02-10T02:20:13.651Z,15.40
2019-02-10T02:22:42.624Z,17.90
2019-02-10T02:25:14.059Z,18.77
2019-02-10T02:27:42.766Z,19.30
2019-02-10T02:30:14.162Z,20.00
2019-02-10T02:32:42.852Z,18.37
2019-02-10T02:35:11.667Z,22.40
2019-02-10T02:37:40.348Z,17.00
2019-02-10T02:40:10.623Z,16.57
2019-02-10T02:42:39.589Z,16.93
2019-02-10T02:45:10.737Z,18.23
2019-02-10T02:47:39.619Z,19.17
2019-02-10T02:50:11.989Z,20.57
2019-02-10T02:52:40.694Z,15.90
2019-02-10T02:55:10.543Z,16.07
2019-02-10T02:57:39.246Z,19.07
2019-02-10T03:00:10.526Z,19.27
2019-02-10T03:02:39.200Z,19.00
2019-02-10T03:05:11.208Z,18.27
2019-02-10T03:07:39.986Z,17.60
2019-02-10T03:10:09.889Z,23.73
2019-02-10T03:12:38.584Z,19.00
2019-02-10T03:15:09.120Z,23.07
2019-02-10T03:17:37.801Z,20.60
2019-02-10T03:20:08.377Z,18.67
2019-02-10T03:22:37.049Z,17.33
2019-02-10T03:25:07.901Z,19.87
2019-02-10T03:27:36.572Z,17.87
2019-02-10T03:30:07.866Z,23.93
2019-02-10T03:32:36.547Z,19.23
2019-02-10T03:35:09.240Z,21.23
2019-02-10T03:37:37.635Z,20.73
2019-02-10T03:40:10.654Z,22.93
2019-02-10T03:42:39.292Z,20.07
2019-02-10T03:45:09.362Z,20.97
2019-02-10T03:47:38.039Z,21.33
2019-02-10T03:50:08.629Z,19.67
2019-02-10T03:52:37.308Z,18.53
2019-02-10T03:55:08.075Z,17.53
2019-02-10T03:57:36.890Z,20.23
2019-02-10T04:00:13.342Z,20.10
2019-02-10T04:02:42.405Z,19.40
2019-02-10T04:05:11.119Z,18.23
2019-02-10T04:07:39.818Z,19.93
2019-02-10T04:10:10.357Z,16.90
2019-02-10T04:12:39.048Z,19.73
2019-02-10T04:15:08.427Z,22.37
2019-02-10T04:17:39.867Z,20.63
2019-02-10T04:20:09.743Z,23.53
2019-02-10T04:22:38.404Z,23.30
2019-02-10T04:25:07.991Z,21.73
2019-02-10T04:27:36.666Z,24.03
2019-02-10T04:30:09.263Z,24.70
2019-02-10T04:32:38.361Z,24.97
2019-02-10T04:35:07.133Z,28.10
2019-02-10T04:37:45.053Z,22.83
2019-02-10T04:40:07.513Z,17.83
2019-02-10T04:42:36.192Z,21.80
2019-02-10T04:45:05.268Z,21.00
2019-02-10T04:47:33.942Z,19.97
2019-02-10T04:50:02.628Z,19.03
2019-02-10T04:52:31.316Z,18.73
2019-02-10T04:55:00.001Z,20.97
2019-02-10T04:57:28.694Z,18.60
2019-02-10T04:59:57.413Z,20.77
2019-02-10T05:02:26.137Z,23.03
2019-02-10T05:04:54.824Z,18.97
2019-02-10T05:07:23.523Z,19.70
2019-02-10T05:09:52.210Z,21.70
2019-02-10T05:12:21.805Z,20.67
2019-02-10T05:14:50.496Z,21.43
2019-02-10T05:17:19.189Z,22.73
2019-02-10T05:19:47.870Z,18.97
2019-02-10T05:22:16.533Z,19.00
2019-02-10T05:24:45.200Z,16.47
2019-02-10T05:27:13.887Z,19.10
2019-02-10T05:29:42.585Z,18.80
2019-02-10T05:32:11.261Z,22.20
2019-02-10T05:34:39.927Z,22.10
2019-02-10T05:37:08.619Z,26.37
2019-02-10T05:39:37.287Z,23.73
2019-02-10T05:42:05.988Z,27.13
2019-02-10T05:44:34.656Z,31.70
2019-02-10T05:47:03.378Z,28.57
2019-02-10T05:49:32.041Z,28.23
2019-02-10T05:52:00.731Z,27.97
2019-02-10T05:54:29.419Z,22.83
2019-02-10T05:56:58.102Z,34.33
2019-02-10T05:59:26.784Z,37.67
2019-02-10T06:02:01.523Z,34.63
2019-02-10T06:04:31.048Z,37.30
2019-02-10T06:07:02.681Z,39.30
2019-02-10T06:09:31.399Z,35.37
2019-02-10T06:12:00.275Z,34.93
2019-02-10T06:14:28.950Z,26.53
2019-02-10T06:16:57.635Z,18.90
2019-02-10T06:19:26.320Z,19.80
2019-02-10T06:21:54.982Z,16.97
2019-02-10T06:24:23.660Z,17.73
2019-02-10T06:26:52.336Z,21.80
2019-02-10T06:29:21.011Z,22.40
2019-02-10T06:31:49.846Z,25.33
2019-02-10T06:34:18.527Z,21.80
2019-02-10T06:36:47.209Z,17.57
2019-02-10T06:39:15.865Z,16.57
2019-02-10T06:41:44.537Z,16.50
2019-02-10T06:44:14.645Z,11.87
2019-02-10T06:46:43.310Z,16.07
2019-02-10T06:49:11.990Z,11.00
2019-02-10T06:51:40.657Z,15.60
2019-02-10T06:54:09.418Z,14.77
2019-02-10T06:56:38.088Z,12.77
2019-02-10T06:59:08.381Z,16.27
2019-02-10T07:01:38.614Z,14.80
2019-02-10T07:04:10.958Z,16.27
2019-02-10T07:06:39.645Z,18.03
2019-02-10T07:09:08.323Z,19.43
2019-02-10T07:11:36.988Z,20.10
2019-02-10T07:14:08.000Z,20.60
2019-02-10T07:16:48.560Z,17.77
2019-02-10T07:19:52.889Z,22.50
2019-02-10T07:22:36.537Z,25.53
2019-02-10T07:25:17.157Z,19.07
2019-02-10T07:28:04.466Z,19.50
2019-02-10T07:30:52.417Z,19.50
2019-02-10T07:33:29.899Z,18.50
2019-02-10T07:36:07.346Z,21.90
2019-02-10T07:38:59.831Z,22.17
2019-02-10T07:41:55.180Z,23.73
2019-02-10T07:44:26.769Z,20.47
2019-02-10T07:47:13.198Z,22.60
2019-02-10T07:50:02.999Z,25.17
2019-02-10T07:52:37.606Z,26.93
2019-02-10T07:55:18.150Z,28.37
2019-02-10T07:58:23.391Z,25.73
2019-02-10T08:01:03.859Z,28.47
2019-02-10T08:03:35.483Z,30.07
2019-02-10T08:06:19.151Z,28.30
2019-02-10T08:09:07.191Z,31.87
2019-02-10T08:11:41.573Z,32.10
2019-02-10T08:14:15.877Z,35.30
2019-02-10T08:17:05.623Z,40.50
2019-02-10T08:20:01.007Z,41.10
2019-02-10T08:22:50.863Z,42.13
2019-02-10T08:25:43.343Z,38.73
2019-02-10T08:28:25.477Z,39.13
2019-02-10T08:30:58.933Z,41.33
2019-02-10T08:33:42.444Z,40.00
2019-02-10T08:36:22.930Z,39.17
2019-02-10T08:39:00.322Z,41.70
2019-02-10T08:41:48.542Z,47.97
2019-02-10T08:44:45.903Z,45.93
2019-02-10T08:47:23.138Z,46.77
2019-02-10T08:50:02.102Z,43.57
2019-02-10T08:52:38.709Z,41.57
2019-02-10T08:55:07.887Z,41.90
2019-02-10T08:57:36.645Z,43.13
2019-02-10T09:00:11.400Z,39.13
2019-02-10T09:02:40.112Z,39.20
2019-02-10T09:05:09.101Z,41.27
2019-02-10T09:07:38.221Z,42.20
2019-02-10T09:10:10.076Z,44.27
2019-02-10T09:12:38.751Z,39.10
2019-02-10T09:15:10.337Z,42.70
2019-02-10T09:17:39.068Z,41.67
2019-02-10T09:20:10.586Z,41.83
2019-02-10T09:22:39.268Z,41.77
2019-02-10T09:25:10.665Z,41.70
2019-02-10T09:27:39.334Z,35.33
2019-02-10T09:30:11.307Z,40.60
2019-02-10T09:32:39.984Z,34.93
2019-02-10T09:35:09.306Z,40.03
2019-02-10T09:37:38.061Z,40.73
2019-02-10T09:40:09.753Z,41.23
2019-02-10T09:42:38.440Z,43.83
2019-02-10T09:45:09.922Z,39.70
2019-02-10T09:47:38.587Z,40.67
2019-02-10T09:50:11.258Z,40.37
2019-02-10T09:52:39.922Z,46.07
2019-02-10T09:55:09.427Z,42.03
2019-02-10T09:57:38.103Z,47.60
2019-02-10T10:00:09.950Z,37.43
2019-02-10T10:02:38.625Z,36.00
2019-02-10T10:05:09.391Z,44.27
2019-02-10T10:07:38.066Z,39.60
2019-02-10T10:10:09.358Z,39.77
2019-02-10T10:12:38.027Z,41.77
2019-02-10T10:15:09.895Z,41.93
2019-02-10T10:17:38.598Z,46.07
2019-02-10T10:20:10.468Z,43.67
2019-02-10T10:22:39.187Z,42.07
2019-02-10T10:25:09.363Z,47.27
2019-02-10T10:27:39.601Z,47.10
2019-02-10T10:30:13.908Z,42.03
2019-02-10T10:32:42.565Z,48.13
2019-02-10T10:35:11.333Z,42.50
2019-02-10T10:37:40.009Z,42.63
2019-02-10T10:40:11.149Z,43.83
2019-02-10T10:42:39.934Z,47.70
2019-02-10T10:45:15.804Z,45.80
2019-02-10T10:47:44.482Z,56.03
2019-02-10T10:50:14.653Z,44.50
2019-02-10T10:52:43.322Z,44.27
2019-02-10T10:55:13.303Z,45.43
2019-02-10T10:57:41.997Z,48.03
2019-02-10T11:00:13.183Z,37.37
2019-02-10T11:02:41.871Z,44.23
2019-02-10T11:05:11.245Z,43.33
2019-02-10T11:07:39.935Z,38.87
2019-02-10T11:10:10.826Z,41.57
2019-02-10T11:12:39.523Z,40.50
2019-02-10T11:15:16.302Z,40.43
2019-02-10T11:17:45.006Z,36.88
2019-02-10T11:20:13.796Z,38.73
2019-02-10T11:22:42.852Z,37.45
2019-02-10T11:25:12.300Z,37.33
2019-02-10T11:27:41.010Z,38.98
2019-02-10T11:30:12.539Z,34.40
2019-02-10T11:32:41.223Z,30.60
2019-02-10T11:35:10.591Z,32.80
2019-02-10T11:37:39.279Z,33.28
2019-02-10T11:40:12.571Z,30.88
2019-02-10T11:42:41.246Z,38.17
2019-02-10T11:45:14.192Z,27.82
2019-02-10T11:47:42.867Z,24.30
2019-02-10T11:50:13.017Z,27.98
2019-02-10T11:52:41.713Z,14.00
2019-02-10T11:55:11.297Z,16.73
2019-02-10T11:57:41.280Z,11.08
2019-02-10T12:00:13.163Z,11.50
2019-02-10T12:02:41.831Z,8.05
2019-02-10T12:05:11.933Z,6.62
2019-02-10T12:07:40.589Z,7.15
2019-02-10T12:10:11.397Z,7.12
2019-02-10T12:12:40.063Z,6.28
2019-02-10T12:15:13.944Z,8.13
2019-02-10T12:17:42.621Z,9.15
2019-02-10T12:20:12.807Z,8.88
2019-02-10T12:22:49.673Z,10.55
2019-02-10T12:25:11.982Z,7.00
2019-02-10T12:27:40.653Z,6.45
2019-02-10T12:30:18.507Z,10.60
2019-02-10T12:32:47.220Z,8.73
2019-02-10T12:35:15.888Z,8.28
2019-02-10T12:37:44.561Z,6.92
2019-02-10T12:40:13.331Z,7.42
2019-02-10T12:42:41.998Z,6.85
2019-02-10T12:45:12.270Z,9.05
2019-02-10T12:47:40.964Z,8.50
2019-02-10T12:50:16.042Z,7.97
2019-02-10T12:52:44.892Z,7.37
2019-02-10T12:55:13.770Z,7.53
2019-02-10T12:57:42.555Z,7.72
2019-02-10T13:00:18.847Z,8.30
2019-02-10T13:02:47.522Z,6.23
2019-02-10T13:05:16.204Z,10.77
2019-02-10T13:07:44.888Z,8.00
2019-02-10T13:10:17.391Z,6.03
2019-02-10T13:12:45.351Z,5.50
2019-02-10T13:15:14.256Z,7.45
2019-02-10T13:17:43.021Z,6.35
2019-02-10T13:20:12.826Z,5.73
2019-02-10T13:22:41.544Z,8.73
2019-02-10T13:25:12.076Z,14.90
2019-02-10T13:27:40.755Z,17.27
2019-02-10T13:30:12.322Z,11.50
2019-02-10T13:32:40.990Z,6.12
2019-02-10T13:35:09.673Z,7.83
2019-02-10T13:37:38.390Z,5.35
2019-02-10T13:40:18.895Z,6.62
2019-02-10T13:42:47.570Z,7.78
2019-02-10T13:45:16.365Z,6.72
2019-02-10T13:47:45.012Z,6.40
2019-02-10T13:50:18.515Z,7.47
2019-02-10T13:52:47.290Z,8.50
2019-02-10T13:55:16.850Z,9.88
2019-02-10T13:57:45.529Z,14.20
2019-02-10T14:00:16.404Z,7.85
2019-02-10T14:02:45.186Z,11.50
2019-02-10T14:05:13.911Z,18.90
2019-02-10T14:07:42.598Z,16.53
2019-02-10T14:10:16.173Z,19.43
2019-02-10T14:12:45.064Z,22.33
2019-02-10T14:15:15.686Z,19.10
2019-02-10T14:17:44.501Z,13.80
2019-02-10T14:20:18.132Z,16.70
2019-02-10T14:22:46.909Z,20.30
2019-02-10T14:25:15.686Z,14.83
2019-02-10T14:27:44.367Z,18.97
2019-02-10T14:30:17.157Z,18.70
2019-02-10T14:32:45.969Z,21.37
2019-02-10T14:35:14.695Z,18.40
2019-02-10T14:37:43.619Z,20.83
2019-02-10T14:40:12.390Z,16.27
2019-02-10T14:42:41.076Z,13.50
2019-02-10T14:45:12.961Z,15.20
2019-02-10T14:47:41.906Z,14.67
2019-02-10T14:50:19.573Z,17.30
2019-02-10T14:52:48.256Z,16.10
2019-02-10T14:55:16.946Z,13.27
2019-02-10T14:57:45.641Z,21.90
2019-02-10T15:00:16.219Z,15.23
2019-02-10T15:02:44.919Z,11.80
2019-02-10T15:05:13.876Z,12.47
2019-02-10T15:07:42.559Z,12.80
2019-02-10T15:10:16.309Z,19.73
2019-02-10T15:12:44.983Z,19.67
2019-02-10T15:15:13.663Z,25.13
2019-02-10T15:17:42.525Z,27.57
2019-02-10T15:20:13.309Z,18.23
2019-02-10T15:22:42.011Z,18.60
2019-02-10T15:25:14.470Z,32.60
2019-02-10T15:27:43.155Z,38.43
2019-02-10T15:30:13.523Z,47.00
2019-02-10T15:32:42.306Z,29.40
2019-02-10T15:35:11.065Z,33.50
2019-02-10T15:37:39.753Z,34.33
2019-02-10T15:40:12.678Z,33.80
2019-02-10T15:42:41.411Z,38.93
2019-02-10T15:45:12.641Z,40.30
2019-02-10T15:47:41.307Z,54.00
2019-02-10T15:50:12.087Z,37.03
2019-02-10T15:52:40.771Z,36.63
2019-02-10T15:55:14.093Z,31.83
2019-02-10T15:57:42.839Z,29.00
2019-02-10T16:00:15.442Z,24.20
2019-02-10T16:02:44.063Z,32.83
2019-02-10T16:05:12.759Z,27.53
2019-02-10T16:07:41.432Z,28.33
2019-02-10T16:10:11.475Z,36.50
2019-02-10T16:12:40.149Z,61.87
2019-02-10T16:15:11.151Z,56.73
2019-02-10T16:17:39.824Z,36.13
2019-02-10T16:20:13.515Z,30.20
2019-02-10T16:22:42.167Z,25.40
2019-02-10T16:25:11.626Z,25.00
2019-02-10T16:27:40.290Z,29.47
2019-02-10T16:30:14.820Z,30.73
2019-02-10T16:32:49.667Z,37.33
2019-02-10T16:35:13.936Z,37.30
2019-02-10T16:37:42.590Z,41.17
2019-02-10T16:40:16.634Z,36.57
2019-02-10T16:42:45.539Z,44.73
2019-02-10T16:45:14.652Z,58.47
2019-02-10T16:47:43.446Z,60.60
2019-02-10T16:50:16.208Z,59.20
2019-02-10T16:52:44.998Z,62.43
2019-02-10T16:55:21.015Z,67.67
2019-02-10T16:57:49.689Z,66.70
2019-02-10T17:00:18.653Z,71.40
2019-02-10T17:02:47.337Z,226.23
2019-02-10T17:05:16.461Z,121.30
2019-02-10T17:07:45.145Z,73.67
2019-02-10T17:10:16.743Z,55.53
2019-02-10T17:12:45.406Z,36.37
2019-02-10T17:15:15.174Z,31.97
2019-02-10T17:17:43.849Z,35.20
2019-02-10T17:20:13.442Z,31.03
2019-02-10T17:22:42.113Z,23.27
2019-02-10T17:25:22.496Z,26.53
2019-02-10T17:27:51.165Z,29.63
2019-02-10T17:30:19.846Z,33.53
2019-02-10T17:32:48.549Z,32.00
2019-02-10T17:35:17.227Z,32.47
2019-02-10T17:37:45.903Z,28.20
2019-02-10T17:40:29.222Z,29.83
2019-02-10T17:42:57.900Z,27.67
2019-02-10T17:45:26.575Z,29.90
2019-02-10T17:47:55.262Z,34.60
2019-02-10T17:50:23.982Z,34.20
2019-02-10T17:52:52.650Z,39.87
2019-02-10T17:55:21.333Z,34.23
2019-02-10T17:57:50.045Z,44.10
2019-02-10T18:00:20.433Z,52.13
2019-02-10T18:02:49.158Z,52.60
2019-02-10T18:05:17.867Z,51.70
2019-02-10T18:07:46.533Z,41.10
2019-02-10T18:10:15.702Z,38.83
2019-02-10T18:12:44.389Z,38.20
2019-02-10T18:15:14.663Z,40.53
2019-02-10T18:17:47.639Z,47.03
2019-02-10T18:20:17.888Z,51.90
2019-02-10T18:23:00.169Z,41.83
2019-02-10T18:25:42.475Z,44.03
2019-02-10T18:28:29.086Z,43.30
2019-02-10T18:30:59.324Z,42.23
2019-02-10T18:33:38.615Z,43.83
2019-02-10T18:36:11.753Z,42.13
2019-02-10T18:38:42.027Z,48.93
2019-02-10T18:41:15.401Z,44.07
2019-02-10T18:43:51.683Z,33.77
2019-02-10T18:46:21.974Z,42.13
2019-02-10T18:48:52.248Z,39.77
2019-02-10T18:51:28.353Z,42.17
2019-02-10T18:54:13.877Z,41.83
2019-02-10T18:56:50.239Z,46.93
2019-02-10T18:59:36.843Z,42.10
2019-02-10T19:02:07.512Z,38.67
2019-02-10T19:04:40.733Z,45.37
2019-02-10T19:07:11.073Z,40.50
2019-02-10T19:09:41.311Z,39.40
2019-02-10T19:12:11.550Z,33.60
2019-02-10T19:14:44.386Z,33.80
2019-02-10T19:17:16.682Z,26.03
2019-02-10T19:19:46.920Z,31.30
2019-02-10T19:22:18.634Z,26.53
2019-02-10T19:24:48.866Z,28.00
2019-02-10T19:27:19.100Z,30.90
2019-02-10T19:29:52.528Z,27.47
2019-02-10T19:32:29.070Z,30.10
2019-02-10T19:34:59.314Z,34.50
2019-02-10T19:37:32.296Z,45.53
2019-02-10T19:40:11.386Z,45.93
2019-02-10T19:42:53.625Z,54.80
2019-02-10T19:45:27.016Z,48.47
2019-02-10T19:47:57.302Z,47.20
2019-02-10T19:50:33.426Z,46.43
2019-02-10T19:53:19.228Z,49.27
2019-02-10T19:56:06.071Z,43.20
2019-02-10T19:58:39.536Z,37.27
2019-02-10T20:01:15.755Z,46.17
2019-02-10T20:03:46.334Z,49.37
2019-02-10T20:06:16.585Z,37.07
2019-02-10T20:09:02.097Z,40.70
2019-02-10T20:11:32.564Z,36.67
2019-02-10T20:14:17.874Z,34.33
2019-02-10T20:16:48.124Z,36.90
2019-02-10T20:19:18.399Z,42.27
2019-02-10T20:21:51.244Z,33.23
2019-02-10T20:24:27.328Z,35.97
2019-02-10T20:27:12.749Z,36.03
2019-02-10T20:29:42.987Z,34.37
2019-02-10T20:32:19.145Z,35.90
2019-02-10T20:34:52.267Z,46.37
2019-02-10T20:37:28.260Z,39.53
2019-02-10T20:40:14.741Z,43.20
2019-02-10T20:42:45.414Z,40.67
2019-02-10T20:45:15.666Z,37.50
2019-02-10T20:47:51.672Z,47.97
2019-02-10T20:50:22.110Z,45.53
2019-02-10T20:52:52.423Z,38.83
2019-02-10T20:55:22.680Z,43.70
2019-02-10T20:57:55.934Z,40.73
2019-02-10T21:00:26.180Z,47.50
2019-02-10T21:03:05.434Z,40.83
2019-02-10T21:05:41.863Z,44.50
2019-02-10T21:08:24.279Z,45.40
2019-02-10T21:10:55.107Z,45.40
2019-02-10T21:13:31.355Z,48.20
2019-02-10T21:16:01.594Z,51.63
2019-02-10T21:18:31.867Z,50.30
2019-02-10T21:21:08.447Z,48.00
2019-02-10T21:23:50.608Z,50.23
2019-02-10T21:26:20.849Z,49.73
2019-02-10T21:28:51.084Z,42.93
2019-02-10T21:31:36.602Z,43.63
2019-02-10T21:34:06.845Z,49.57
2019-02-10T21:36:37.144Z,53.80
2019-02-10T21:39:20.817Z,52.03
2019-02-10T21:42:01.206Z,50.13
2019-02-10T21:44:47.623Z,43.27
2019-02-10T21:47:17.877Z,45.03
2019-02-10T21:49:46.533Z,48.30
2019-02-10T21:52:15.260Z,51.77
2019-02-10T21:54:44.094Z,45.00
2019-02-10T21:57:12.756Z,55.93
2019-02-10T21:59:41.449Z,55.70
2019-02-10T22:02:10.120Z,55.43
2019-02-10T22:04:38.816Z,53.73
2019-02-10T22:07:07.706Z,52.57
2019-02-10T22:09:36.395Z,56.67
2019-02-10T22:12:05.090Z,54.67
2019-02-10T22:14:34.059Z,54.30
2019-02-10T22:17:02.735Z,53.27
2019-02-10T22:19:31.398Z,55.80
2019-02-10T22:22:00.117Z,49.43
2019-02-10T22:24:28.787Z,60.00
2019-02-10T22:26:57.451Z,61.73
2019-02-10T22:29:26.257Z,52.13
2019-02-10T22:31:54.930Z,55.37
2019-02-10T22:34:23.602Z,50.33
2019-02-10T22:36:52.469Z,61.93
2019-02-10T22:39:21.145Z,58.30
2019-02-10T22:41:49.813Z,66.97
2019-02-10T22:44:18.636Z,64.10
2019-02-10T22:46:47.298Z,62.07
2019-02-10T22:49:15.981Z,64.20
2019-02-10T22:51:44.669Z,58.80
2019-02-10T22:54:13.366Z,53.23
2019-02-10T22:56:42.220Z,54.40
2019-02-10T22:59:10.899Z,59.77
2019-02-10T23:01:39.574Z,57.27
2019-02-10T23:04:08.309Z,55.10
2019-02-10T23:06:36.988Z,53.73
2019-02-10T23:09:09.242Z,53.47
2019-02-10T23:11:37.904Z,51.13
2019-02-10T23:14:06.609Z,51.20
2019-02-10T23:16:35.273Z,54.33
2019-02-10T23:19:03.940Z,54.33
2019-02-10T23:21:32.638Z,58.07
2019-02-10T23:24:01.309Z,59.30
2019-02-10T23:26:29.991Z,54.03
2019-02-10T23:28:58.753Z,56.23
2019-02-10T23:31:27.871Z,57.63
2019-02-10T23:33:56.536Z,57.00
2019-02-10T23:36:25.429Z,57.53
2019-02-10T23:38:54.140Z,57.93
2019-02-10T23:41:22.814Z,55.00
2019-02-10T23:43:51.519Z,56.30
2019-02-10T23:46:20.400Z,63.97
2019-02-10T23:48:49.085Z,61.90
2019-02-10T23:51:17.756Z,59.13
2019-02-10T23:53:46.559Z,60.67
2019-02-10T23:56:15.250Z,59.57
2019-02-10T23:58:43.947Z,60.90
